Time;durP1;ratioP1;P1;durP2;ratioP2;P2;SDS_P1;SDS_P2;PMS_P1;PMS_P2;Temp;Humidity;BMP_temperature;BMP_pressure;BME280_temperature;BME280_humidity;BME280_pressure;Samples;Min_cycle;Max_cycle;Signal;HPM_P1;HPM_P2
2021/04/12 00:09:37;;;;;;;0.20;0.10;;;11.50;99.90;;;;;;20638990;28;20292;-81
2021/04/12 00:42:11;;;;;;;0.20;0.00;;;11.60;99.90;;;;;;20819601;28;20651;-83
2021/04/12 00:53:06;;;;;;;0.20;0.10;;;11.50;99.90;;;;;;20799263;28;20552;-75
2021/04/12 01:03:37;;;;;;;0.20;0.00;;;11.30;99.90;;;;;;20602702;28;20261;-77
2021/04/12 01:13:57;;;;;;;0.20;0.10;;;11.30;99.90;;;;;;20815451;28;20737;-75
2021/04/12 01:24:38;;;;;;;0.20;0.00;;;11.30;99.90;;;;;;20716656;28;20672;-77
2021/04/12 01:46:20;;;;;;;0.20;0.00;;;11.30;99.90;;;;;;20723101;28;20745;-77
2021/04/12 02:06:43;;;;;;;0.20;0.10;;;11.20;99.90;;;;;;20551966;28;20228;-74
2021/04/12 02:16:58;;;;;;;0.20;0.00;;;11.00;99.90;;;;;;20561193;28;20263;-73
2021/04/12 02:27:07;;;;;;;0.20;0.07;;;11.00;99.90;;;;;;20583653;28;20208;-74
2021/04/12 02:37:30;;;;;;;0.20;0.10;;;10.90;99.90;;;;;;20581939;28;20232;-75
2021/04/12 02:48:21;;;;;;;0.20;0.10;;;10.90;99.90;;;;;;20582036;28;20736;-74
2021/04/12 03:10:04;;;;;;;0.20;0.20;;;10.80;99.90;;;;;;20866332;23;20235;-76
2021/04/12 03:32:03;;;;;;;0.20;0.10;;;11.00;99.90;;;;;;20494886;23;20712;-73
2021/04/12 03:42:23;;;;;;;0.20;0.10;;;11.00;99.90;;;;;;20680582;23;20743;-76
2021/04/12 03:53:08;;;;;;;0.20;0.10;;;10.90;99.90;;;;;;20658852;28;20605;-78
2021/04/12 04:14:51;;;;;;;0.20;0.00;;;10.40;99.90;;;;;;20812777;23;20723;-77
2021/04/12 04:47:58;;;;;;;0.20;0.00;;;10.20;99.90;;;;;;20805722;23;20254;-78
2021/04/12 04:58:13;;;;;;;0.50;0.43;;;9.90;99.90;;;;;;20736433;28;20573;-77
2021/04/12 05:08:56;;;;;;;0.20;0.10;;;9.60;99.90;;;;;;20735198;28;20205;-77
2021/04/12 05:19:34;;;;;;;0.20;0.03;;;9.40;99.90;;;;;;20732986;28;20269;-78
2021/04/12 05:30:03;;;;;;;0.20;0.10;;;9.60;99.90;;;;;;20732579;28;20261;-75
2021/04/12 05:40:20;;;;;;;0.20;0.17;;;9.60;99.90;;;;;;20765734;28;20690;-77
2021/04/12 05:50:55;;;;;;;0.20;0.10;;;9.70;99.90;;;;;;20780622;28;20207;-75
2021/04/12 06:01:19;;;;;;;0.20;0.10;;;9.60;99.90;;;;;;20761511;23;20293;-81
2021/04/12 06:12:00;;;;;;;0.20;0.10;;;9.50;99.90;;;;;;20467095;29;20284;-76
2021/04/12 06:22:34;;;;;;;0.30;0.30;;;9.20;99.90;;;;;;20482925;29;20332;-78
2021/04/12 06:33:15;;;;;;;0.20;0.10;;;9.20;99.90;;;;;;20500836;29;20737;-76
2021/04/12 06:44:02;;;;;;;0.20;0.10;;;9.60;99.90;;;;;;20533920;28;20294;-77
2021/04/12 06:54:44;;;;;;;0.20;0.10;;;10.00;99.90;;;;;;20522044;23;20327;-77
2021/04/12 07:05:34;;;;;;;0.20;0.00;;;9.90;99.90;;;;;;20592271;28;20292;-75
2021/04/12 07:16:23;;;;;;;0.20;0.10;;;9.90;99.90;;;;;;20595554;23;20242;-77
2021/04/12 07:51:33;;;;;;;0.20;0.10;;;10.90;99.90;;;;;;20571423;28;20563;-73
2021/04/12 08:02:19;;;;;;;0.23;0.23;;;10.90;99.90;;;;;;20734558;28;20235;-74
2021/04/12 08:13:05;;;;;;;0.23;0.23;;;11.20;99.90;;;;;;20323116;28;20211;-73
2021/04/12 08:23:44;;;;;;;0.20;0.20;;;11.30;99.90;;;;;;20314393;29;20229;-74
2021/04/12 08:57:47;;;;;;;0.20;0.10;;;12.40;99.90;;;;;;20401567;29;20284;-74
2021/04/12 09:08:18;;;;;;;3.80;2.37;;;12.80;99.90;;;;;;20399015;29;20201;-75
2021/04/12 09:31:16;;;;;;;0.20;0.10;;;13.10;99.90;;;;;;20416678;23;20235;-76
2021/04/12 09:41:46;;;;;;;7.63;0.53;;;13.60;99.90;;;;;;20692851;28;20238;-76
2021/04/12 09:52:27;;;;;;;0.57;0.53;;;13.70;99.90;;;;;;20700915;28;20207;-74
2021/04/12 10:03:15;;;;;;;0.20;0.20;;;13.80;99.90;;;;;;20568396;28;20231;-76
2021/04/12 10:13:37;;;;;;;0.20;0.10;;;13.40;99.90;;;;;;20663176;28;20251;-77
2021/04/12 10:34:21;;;;;;;0.40;0.27;;;15.20;99.90;;;;;;20644621;28;20211;-81
2021/04/12 10:55:38;;;;;;;0.20;0.10;;;15.90;99.90;;;;;;20815877;23;20598;-80
2021/04/12 11:17:28;;;;;;;0.20;0.10;;;17.10;99.90;;;;;;20496131;23;20489;-79
2021/04/12 11:28:23;;;;;;;0.20;0.10;;;17.00;99.90;;;;;;20657596;23;20322;-80
2021/04/12 11:38:47;;;;;;;0.20;0.00;;;18.00;99.90;;;;;;20745163;28;20668;-82
2021/04/12 11:49:55;;;;;;;0.20;0.00;;;18.00;99.90;;;;;;20742709;23;20319;-78
2021/04/12 12:11:27;;;;;;;0.30;0.30;;;18.20;99.90;;;;;;20656671;23;20857;-81
2021/04/12 12:22:17;;;;;;;0.40;0.30;;;20.60;99.90;;;;;;20547012;28;20227;-80
2021/04/12 12:33:10;;;;;;;0.70;0.70;;;20.50;99.90;;;;;;20575242;23;20256;-80
2021/04/12 12:44:06;;;;;;;7.60;1.33;;;20.60;99.90;;;;;;20405375;29;20224;-79
2021/04/12 14:46:02;;;;;;;0.20;0.10;;;23.60;99.90;;;;;;21303975;23;20243;-80
2021/04/12 15:08:24;;;;;;;0.20;0.17;;;23.30;99.90;;;;;;20273702;23;20239;-78
2021/04/12 15:18:42;;;;;;;3.40;0.33;;;23.10;99.90;;;;;;20606037;23;20653;-76
2021/04/12 15:51:26;;;;;;;0.20;0.10;;;22.30;99.90;;;;;;20627038;23;20258;-78
2021/04/12 16:02:24;;;;;;;0.20;0.00;;;20.00;99.90;;;;;;20656174;23;20227;-78
2021/04/12 16:12:28;;;;;;;1.13;0.60;;;18.30;99.90;;;;;;20635727;28;20195;-79
2021/04/12 16:22:37;;;;;;;0.50;0.50;;;17.40;99.90;;;;;;20635489;28;20231;-80
2021/04/12 16:32:42;;;;;;;0.20;0.20;;;17.30;99.90;;;;;;20651780;28;20207;-77
2021/04/12 16:42:47;;;;;;;0.20;0.10;;;17.20;99.90;;;;;;20650951;28;20318;-78
2021/04/12 16:52:56;;;;;;;0.20;0.10;;;16.80;99.90;;;;;;20632577;28;20295;-75
2021/04/12 17:03:26;;;;;;;31.33;15.53;;;17.40;99.90;;;;;;20652030;28;20789;-72
2021/04/12 17:13:33;;;;;;;0.43;0.40;;;17.70;99.90;;;;;;20605864;28;20251;-78
2021/04/12 17:24:03;;;;;;;0.50;0.23;;;17.50;99.90;;;;;;20569467;28;20692;-78
2021/04/12 17:34:14;;;;;;;0.90;0.67;;;18.70;99.90;;;;;;20591608;28;20226;-77
2021/04/12 17:44:26;;;;;;;0.40;0.40;;;19.30;99.90;;;;;;20703780;28;20226;-78
2021/04/12 17:54:37;;;;;;;0.53;0.23;;;17.10;99.90;;;;;;20628405;28;20199;-78
2021/04/12 18:04:48;;;;;;;0.20;0.10;;;15.50;99.90;;;;;;20644411;28;20232;-77
2021/04/12 18:14:56;;;;;;;0.30;0.20;;;15.20;99.90;;;;;;20629810;28;20603;-79
2021/04/12 18:25:24;;;;;;;0.20;0.10;;;14.80;99.90;;;;;;20645907;28;20587;-76
2021/04/12 18:35:31;;;;;;;0.20;0.20;;;14.40;99.90;;;;;;20645199;28;20690;-80
2021/04/12 18:45:42;;;;;;;0.20;0.10;;;14.40;99.90;;;;;;20737006;28;20561;-80
2021/04/12 19:18:49;;;;;;;0.20;0.10;;;13.70;99.90;;;;;;20664013;28;20222;-77
2021/04/12 19:29:34;;;;;;;0.20;0.10;;;13.90;99.90;;;;;;20706231;28;20198;-76
2021/04/12 19:39:42;;;;;;;0.53;0.53;;;12.50;99.90;;;;;;20771741;28;20222;-78
2021/04/12 19:49:50;;;;;;;0.37;0.37;;;12.00;99.90;;;;;;20804345;28;20198;-77
2021/04/12 19:59:58;;;;;;;1.70;1.17;;;11.80;99.90;;;;;;20680733;28;20230;-78
2021/04/12 20:10:52;;;;;;;0.20;0.20;;;11.60;99.90;;;;;;20714052;28;20227;-78
2021/04/12 20:32:24;;;;;;;0.73;0.40;;;11.30;99.90;;;;;;25434337;23;21162;-78
2021/04/12 20:43:24;;;;;;;1.43;0.60;;;11.30;99.90;;;;;;20589576;23;20759;-79
2021/04/12 20:53:33;;;;;;;0.30;0.20;;;11.20;99.90;;;;;;20720296;23;20258;-79
2021/04/12 21:03:42;;;;;;;0.60;0.60;;;11.00;99.90;;;;;;20712697;28;20770;-81
2021/04/12 21:13:51;;;;;;;0.43;0.43;;;10.90;99.90;;;;;;20711066;28;20214;-78
2021/04/12 21:24:04;;;;;;;0.57;0.30;;;10.80;99.90;;;;;;20741980;28;20222;-77
2021/04/12 21:34:12;;;;;;;0.80;0.80;;;10.70;99.90;;;;;;20728308;28;20640;-78
2021/04/12 21:44:28;;;;;;;0.30;0.30;;;10.70;99.90;;;;;;20794490;28;20249;-77
2021/04/12 21:54:43;;;;;;;0.30;0.20;;;10.50;99.90;;;;;;20825469;28;20222;-78
2021/04/12 22:04:57;;;;;;;1.97;1.13;;;10.40;99.90;;;;;;20662393;28;20231;-78
2021/04/12 22:15:38;;;;;;;0.40;0.37;;;10.30;99.90;;;;;;20669779;28;20242;-77
2021/04/12 22:25:44;;;;;;;0.30;0.20;;;10.40;99.90;;;;;;20678070;28;20582;-78
2021/04/12 22:46:18;;;;;;;0.23;0.20;;;10.20;99.90;;;;;;20654043;28;20243;-83
2021/04/12 22:56:49;;;;;;;3.90;1.07;;;9.90;99.90;;;;;;20643864;28;20228;-75
2021/04/12 23:06:52;;;;;;;0.30;0.30;;;9.80;99.90;;;;;;20660631;28;20233;-75
2021/04/12 23:16:58;;;;;;;0.20;0.10;;;9.80;99.90;;;;;;20728272;28;20207;-72
2021/04/12 23:27:06;;;;;;;0.63;0.63;;;9.90;99.90;;;;;;20739867;28;20633;-72
2021/04/12 23:37:18;;;;;;;0.40;0.40;;;9.80;99.90;;;;;;20749440;28;20929;-71
2021/04/12 23:47:24;;;;;;;0.30;0.27;;;9.90;99.90;;;;;;20819328;28;20257;-71
2021/04/12 23:57:43;;;;;;;0.20;0.10;;;9.80;99.90;;;;;;20802351;28;20226;-74
